createdAt,value
2022-12-01T00:01:12.650Z,102074.63
2022-12-01T00:03:39.796Z,102077.31
2022-12-01T00:06:10.327Z,102081.66
2022-12-01T00:08:37.407Z,102078.91
2022-12-01T00:11:08.491Z,102096.19
2022-12-01T00:13:35.474Z,102076.31
2022-12-01T00:16:16.369Z,102064.34
2022-12-01T00:18:43.264Z,102074.63
2022-12-01T00:21:17.870Z,102078.09
2022-12-01T00:23:47.280Z,102067.84
2022-12-01T00:26:14.531Z,102072.84
2022-12-01T00:28:41.008Z,102077.22
2022-12-01T00:31:09.160Z,102073.81
2022-12-01T00:33:35.818Z,102058.50
2022-12-01T00:36:02.659Z,102065.13
2022-12-01T00:38:29.515Z,102070.25
2022-12-01T00:40:56.209Z,102071.03
2022-12-01T00:43:22.842Z,102075.44
2022-12-01T00:45:49.379Z,102069.34
2022-12-01T00:48:16.021Z,102074.63
2022-12-01T00:50:43.043Z,102071.09
2022-12-01T00:53:09.998Z,102075.50
2022-12-01T00:55:36.495Z,102066.75
2022-12-01T00:58:03.090Z,102072.78
2022-12-01T01:00:29.557Z,102064.25
2022-12-01T01:02:56.104Z,102080.50
2022-12-01T01:05:23.338Z,102079.59
2022-12-01T01:07:49.966Z,102083.09
2022-12-01T01:10:16.571Z,102078.81
2022-12-01T01:12:43.105Z,102077.97
2022-12-01T01:15:10.072Z,102081.41
2022-12-01T01:17:36.668Z,102080.50
2022-12-01T01:20:06.960Z,102089.94
2022-12-01T01:22:35.400Z,102084.78
2022-12-01T01:25:02.014Z,102097.75
2022-12-01T01:27:28.491Z,102098.66
2022-12-01T01:29:54.934Z,102085.69
2022-12-01T01:32:21.467Z,102096.91
2022-12-01T01:34:47.970Z,102086.59
2022-12-01T01:37:14.482Z,102097.75
2022-12-01T01:39:40.934Z,102095.44
2022-12-01T01:42:12.626Z,102099.66
2022-12-01T01:44:56.314Z,102106.50
2022-12-01T01:47:31.883Z,102099.56
2022-12-01T01:50:06.207Z,102108.25
2022-12-01T01:52:36.410Z,102109.16
2022-12-01T01:55:03.482Z,102110.91
2022-12-01T01:57:33.296Z,102108.34
2022-12-01T02:00:27.246Z,102110.91
2022-12-01T02:02:54.263Z,102104.84
2022-12-01T02:05:26.426Z,102101.47
2022-12-01T02:07:57.069Z,102108.41
2022-12-01T02:11:24.052Z,102107.59
2022-12-01T02:13:54.124Z,102107.75
2022-12-01T02:16:35.189Z,102112.00
2022-12-01T02:19:14.914Z,102107.94
2022-12-01T02:22:15.313Z,102106.06
2022-12-01T02:25:00.641Z,102111.34
2022-12-01T02:27:53.669Z,102111.38
2022-12-01T02:30:41.065Z,102108.09
2022-12-01T02:33:53.565Z,102116.56
2022-12-01T02:36:56.731Z,102102.75
2022-12-01T02:39:35.670Z,102108.78
2022-12-01T02:42:10.505Z,102106.16
2022-12-01T02:44:44.554Z,102107.25
2022-12-01T02:47:19.501Z,102105.44
2022-12-01T02:49:52.723Z,102102.84
2022-12-01T02:52:22.430Z,102098.53
2022-12-01T02:54:49.346Z,102083.97
2022-12-01T02:57:16.887Z,102096.03
2022-12-01T02:59:47.598Z,102094.28
2022-12-01T03:02:24.501Z,102102.00
2022-12-01T03:05:34.190Z,102104.59
2022-12-01T03:08:13.725Z,102097.88
2022-12-01T03:10:54.717Z,102103.03
2022-12-01T03:13:46.573Z,102108.22
2022-12-01T03:16:33.377Z,102110.78
2022-12-01T03:19:08.241Z,102106.50
2022-12-01T03:21:54.911Z,102112.59
2022-12-01T03:24:26.240Z,102112.59
2022-12-01T03:26:57.340Z,102109.16
2022-12-01T03:29:30.732Z,102104.91
2022-12-01T03:32:03.249Z,102097.09
2022-12-01T03:34:50.033Z,102107.41
2022-12-01T03:37:26.231Z,102098.03
2022-12-01T03:40:00.215Z,102099.84
2022-12-01T03:42:41.862Z,102102.22
2022-12-01T03:45:24.165Z,102107.41
2022-12-01T03:47:51.627Z,102108.38
2022-12-01T03:50:18.668Z,102102.22
2022-12-01T03:53:20.132Z,102109.25
2022-12-01T03:55:54.124Z,102104.97
2022-12-01T03:58:27.330Z,102105.81
2022-12-01T04:00:57.621Z,102109.41
2022-12-01T04:03:25.910Z,102116.28
2022-12-01T04:05:52.521Z,102105.94
2022-12-01T04:08:19.037Z,102107.72
2022-12-01T04:10:45.590Z,102111.16
2022-12-01T04:13:22.073Z,102095.91
2022-12-01T04:15:53.648Z,102113.81
2022-12-01T04:18:20.811Z,102113.75
2022-12-01T04:20:49.316Z,102116.41
2022-12-01T04:23:36.313Z,102118.88
2022-12-01T04:26:04.953Z,102119.78
2022-12-01T04:28:31.741Z,102113.72
2022-12-01T04:30:58.311Z,102106.03
2022-12-01T04:33:24.919Z,102111.16
2022-12-01T04:35:59.641Z,102113.81
2022-12-01T04:38:30.649Z,102106.91
2022-12-01T04:40:57.433Z,102103.38
2022-12-01T04:43:23.869Z,102109.41
2022-12-01T04:45:50.347Z,102107.63
2022-12-01T04:48:17.065Z,102107.63
2022-12-01T04:50:43.594Z,102102.59
2022-12-01T04:53:10.067Z,102109.41
2022-12-01T04:55:38.991Z,102103.44
2022-12-01T04:58:05.874Z,102098.34
2022-12-01T05:00:33.013Z,102097.53
2022-12-01T05:03:00.493Z,102101.81
2022-12-01T05:05:27.114Z,102093.41
2022-12-01T05:07:53.721Z,102106.19
2022-12-01T05:10:20.561Z,102096.00
2022-12-01T05:12:47.289Z,102111.38
2022-12-01T05:15:13.988Z,102107.81
2022-12-01T05:17:40.486Z,102099.25
2022-12-01T05:20:36.826Z,102109.50
2022-12-01T05:23:05.991Z,102102.63
2022-12-01T05:25:33.451Z,102076.28
2022-12-01T05:28:00.093Z,102110.41
2022-12-01T05:30:28.702Z,102107.88
2022-12-01T05:32:55.653Z,102110.56
2022-12-01T05:35:22.198Z,102104.59
2022-12-01T05:37:48.868Z,102102.19
2022-12-01T05:40:15.381Z,102111.53
2022-12-01T05:42:41.888Z,102117.72
2022-12-01T05:45:08.724Z,102121.84
2022-12-01T05:47:35.200Z,102114.22
2022-12-01T05:50:05.434Z,102114.28
2022-12-01T05:52:35.146Z,102123.78
2022-12-01T05:55:02.995Z,102121.03
2022-12-01T05:57:29.820Z,102118.41
2022-12-01T05:59:56.363Z,102102.66
2022-12-01T06:02:23.251Z,102128.97
2022-12-01T06:04:49.772Z,102119.47
2022-12-01T06:07:16.275Z,102122.84
2022-12-01T06:09:42.758Z,102122.06
2022-12-01T06:12:09.196Z,102130.50
2022-12-01T06:14:35.720Z,102124.44
2022-12-01T06:17:02.348Z,102133.97
2022-12-01T06:19:28.849Z,102129.59
2022-12-01T06:21:55.327Z,102131.31
2022-12-01T06:24:21.789Z,102134.75
2022-12-01T06:26:48.273Z,102135.66
2022-12-01T06:29:14.812Z,102128.88
2022-12-01T06:31:42.159Z,102135.81
2022-12-01T06:34:09.041Z,102142.56
2022-12-01T06:36:35.526Z,102147.75
2022-12-01T06:39:02.122Z,102115.41
2022-12-01T06:41:28.595Z,102140.06
2022-12-01T06:43:55.124Z,102132.28
2022-12-01T06:46:21.617Z,102141.78
2022-12-01T06:48:49.223Z,102146.03
2022-12-01T06:51:15.740Z,102148.63
2022-12-01T06:53:42.217Z,102149.44
2022-12-01T06:56:08.744Z,102151.22
2022-12-01T06:58:42.188Z,102140.88
2022-12-01T07:01:12.582Z,102150.31
2022-12-01T07:03:40.018Z,102152.94
2022-12-01T07:06:06.666Z,102154.69
2022-12-01T07:08:33.325Z,102122.41
2022-12-01T07:11:01.760Z,102158.19
2022-12-01T07:13:33.345Z,102165.97
2022-12-01T07:16:01.895Z,102163.38
2022-12-01T07:18:29.335Z,102164.25
2022-12-01T07:21:04.522Z,102169.56
2022-12-01T07:23:31.339Z,102151.53
2022-12-01T07:26:06.976Z,102153.28
2022-12-01T07:28:33.919Z,102156.56
2022-12-01T07:31:11.942Z,102149.75
2022-12-01T07:33:39.334Z,102168.56
2022-12-01T07:36:06.753Z,102147.13
2022-12-01T07:38:34.320Z,102156.38
2022-12-01T07:41:09.644Z,102163.41
2022-12-01T07:43:36.856Z,102154.03
2022-12-01T07:46:23.727Z,102155.63
2022-12-01T07:48:51.613Z,102170.13
2022-12-01T07:51:18.970Z,102171.00
2022-12-01T07:53:47.554Z,102175.31
2022-12-01T07:56:14.012Z,102177.00
2022-12-01T07:58:41.305Z,102170.94
2022-12-01T08:01:11.824Z,102181.28
2022-12-01T08:03:39.134Z,102176.97
2022-12-01T08:06:06.778Z,102176.13
2022-12-01T08:08:35.258Z,102180.31
2022-12-01T08:11:04.667Z,102154.94
2022-12-01T08:13:31.519Z,102183.81
2022-12-01T08:15:58.189Z,102174.31
2022-12-01T08:18:24.933Z,102165.16
2022-12-01T08:20:52.001Z,102189.00
2022-12-01T08:23:18.512Z,102184.63
2022-12-01T08:25:45.017Z,102181.25
2022-12-01T08:28:11.561Z,102182.00
2022-12-01T08:30:38.048Z,102194.03
2022-12-01T08:33:04.576Z,102186.19
2022-12-01T08:35:31.068Z,102192.19
2022-12-01T08:37:57.541Z,102192.25
2022-12-01T08:40:24.204Z,102193.22
2022-12-01T08:42:52.743Z,102200.81
2022-12-01T08:45:19.870Z,102193.88
2022-12-01T08:47:47.515Z,102192.19
2022-12-01T08:50:14.222Z,102192.19
2022-12-01T08:52:40.770Z,102199.06
2022-12-01T08:55:08.196Z,102191.28
2022-12-01T08:57:34.750Z,102195.56
2022-12-01T09:00:01.347Z,102195.56
2022-12-01T09:02:28.053Z,102205.00
2022-12-01T09:04:55.706Z,102204.91
2022-12-01T09:07:26.384Z,102202.41
2022-12-01T09:09:53.447Z,102200.69
2022-12-01T09:12:19.971Z,102199.06
2022-12-01T09:14:48.490Z,102204.88
2022-12-01T09:17:16.715Z,102196.34
2022-12-01T09:19:43.865Z,102209.22
2022-12-01T09:22:11.781Z,102207.50
2022-12-01T09:24:38.442Z,102192.25
2022-12-01T09:27:05.156Z,102203.34
2022-12-01T09:29:32.433Z,102197.41
2022-12-01T09:32:00.480Z,102208.41
2022-12-01T09:34:28.051Z,102205.81
2022-12-01T09:36:56.799Z,102210.09
2022-12-01T09:39:23.541Z,102192.97
2022-12-01T09:41:52.021Z,102208.22
2022-12-01T09:44:40.768Z,102210.03
2022-12-01T09:47:19.539Z,102204.91
2022-12-01T09:49:55.409Z,102208.22
2022-12-01T09:52:24.152Z,102209.91
2022-12-01T09:54:52.229Z,102204.84
2022-12-01T09:57:36.743Z,102186.13
2022-12-01T10:00:13.321Z,102203.88
2022-12-01T10:02:44.412Z,102203.78
2022-12-01T10:05:16.232Z,102199.53
2022-12-01T10:07:52.671Z,102199.50
2022-12-01T10:10:28.658Z,102196.78
2022-12-01T10:12:55.278Z,102194.31
2022-12-01T10:15:39.808Z,102204.41
2022-12-01T10:18:35.484Z,102195.75
2022-12-01T10:21:04.954Z,102194.84
2022-12-01T10:23:55.020Z,102196.47
2022-12-01T10:26:28.880Z,102196.44
2022-12-01T10:29:26.646Z,102196.31
2022-12-01T10:31:59.140Z,102196.44
2022-12-01T10:34:30.001Z,102203.25
2022-12-01T10:36:56.889Z,102197.19
2022-12-01T10:39:37.561Z,102194.63
2022-12-01T10:42:13.893Z,102186.91
2022-12-01T10:44:41.255Z,102186.06
2022-12-01T10:47:34.244Z,102186.91
2022-12-01T10:50:03.221Z,102176.59
2022-12-01T10:52:41.525Z,102180.88
2022-12-01T10:55:23.334Z,102180.13
2022-12-01T10:57:50.469Z,102172.50
2022-12-01T11:03:23.426Z,102175.69
2022-12-01T11:05:55.594Z,102172.19
2022-12-01T11:08:30.501Z,102180.56
2022-12-01T11:10:57.221Z,102177.25
2022-12-01T11:13:29.246Z,102167.94
2022-12-01T11:15:58.749Z,102172.19
2022-12-01T11:18:31.396Z,102175.53
2022-12-01T11:21:15.621Z,102172.94
2022-12-01T11:23:50.158Z,102168.56
2022-12-01T11:26:17.681Z,102162.44
2022-12-01T11:29:25.823Z,102169.31
2022-12-01T11:31:53.186Z,102170.06
2022-12-01T11:34:24.090Z,102157.25
2022-12-01T11:36:51.739Z,102172.53
2022-12-01T11:39:28.929Z,102169.91
2022-12-01T11:41:57.861Z,102159.56
2022-12-01T11:47:24.584Z,102158.63
2022-12-01T11:50:03.430Z,102161.28
2022-12-01T11:52:46.339Z,102159.56
2022-12-01T11:55:12.768Z,102153.56
2022-12-01T11:57:42.556Z,102145.97
2022-12-01T12:01:01.481Z,102161.34
2022-12-01T12:03:41.361Z,102157.06
2022-12-01T12:06:38.340Z,102164.75
2022-12-01T12:09:03.385Z,102160.59
2022-12-01T12:11:38.893Z,102151.13
2022-12-01T12:14:20.251Z,102158.13
2022-12-01T12:17:11.120Z,102152.19
2022-12-01T12:20:16.537Z,102155.63
2022-12-01T12:22:55.413Z,102152.22
2022-12-01T12:25:38.381Z,102146.34
2022-12-01T12:28:31.551Z,102143.88
2022-12-01T12:31:04.960Z,102149.84
2022-12-01T12:33:46.626Z,102141.97
2022-12-01T12:36:27.831Z,102151.50
2022-12-01T12:38:57.039Z,102143.72
2022-12-01T12:41:44.029Z,102127.31
2022-12-01T12:44:37.493Z,102135.88
2022-12-01T12:47:19.376Z,102135.88
2022-12-01T12:49:52.166Z,102136.72
2022-12-01T12:52:25.707Z,102135.19
2022-12-01T12:55:01.547Z,102125.59
2022-12-01T12:57:37.463Z,102125.66
2022-12-01T13:00:04.225Z,102130.78
2022-12-01T13:02:40.935Z,102117.66
2022-12-01T13:05:24.874Z,102123.56
2022-12-01T13:08:08.994Z,102131.28
2022-12-01T13:10:58.080Z,102121.72
2022-12-01T13:13:27.633Z,102113.03
2022-12-01T13:15:56.737Z,102113.94
2022-12-01T13:19:09.826Z,102111.31
2022-12-01T13:21:42.392Z,102096.53
2022-12-01T13:24:16.285Z,102107.63
2022-12-01T13:27:09.972Z,102099.97
2022-12-01T13:29:46.114Z,102107.59
2022-12-01T13:32:43.071Z,102100.59
2022-12-01T13:35:27.575Z,102090.25
2022-12-01T13:38:13.968Z,102090.34
2022-12-01T13:40:40.513Z,102091.25
2022-12-01T13:43:17.875Z,102097.22
2022-12-01T13:45:44.713Z,102087.75
2022-12-01T13:48:48.684Z,102095.41
2022-12-01T13:51:15.470Z,102094.53
2022-12-01T13:54:26.838Z,102095.41
2022-12-01T13:57:05.080Z,102098.00
2022-12-01T13:59:40.443Z,102090.34
2022-12-01T14:02:16.232Z,102093.72
2022-12-01T14:04:42.949Z,102084.59
2022-12-01T14:07:34.229Z,102100.81
2022-12-01T14:10:22.126Z,102098.22
2022-12-01T14:12:50.183Z,102097.31
2022-12-01T14:15:32.187Z,102093.84
2022-12-01T14:18:06.068Z,102101.50
2022-12-01T14:20:37.410Z,102096.31
2022-12-01T14:23:15.034Z,102088.47
2022-12-01T14:25:43.333Z,102081.03
2022-12-01T14:28:16.856Z,102101.50
2022-12-01T14:30:46.104Z,102090.25
2022-12-01T14:33:44.776Z,102093.72
2022-12-01T14:36:21.721Z,102093.03
2022-12-01T14:38:54.180Z,102086.38
2022-12-01T14:41:30.987Z,102097.31
2022-12-01T14:44:16.406Z,102090.38
2022-12-01T14:46:49.111Z,102097.44
2022-12-01T14:49:23.226Z,102077.78
2022-12-01T14:51:54.558Z,102097.47
2022-12-01T14:54:30.135Z,102092.38
2022-12-01T14:57:05.837Z,102075.91
2022-12-01T14:59:33.948Z,102085.41
2022-12-01T15:02:08.989Z,102085.50
2022-12-01T15:05:10.869Z,102082.03
2022-12-01T15:07:43.956Z,102086.53
2022-12-01T15:10:39.274Z,102082.25
2022-12-01T15:13:22.333Z,102076.44
2022-12-01T15:15:59.511Z,102075.81
2022-12-01T15:18:35.107Z,102092.31
2022-12-01T15:21:08.094Z,102088.94
2022-12-01T15:23:34.674Z,102092.59
2022-12-01T15:26:01.348Z,102088.38
2022-12-01T15:28:33.617Z,102096.25
2022-12-01T15:31:01.643Z,102096.41
2022-12-01T15:33:37.276Z,102087.78
2022-12-01T15:36:04.823Z,102091.31
2022-12-01T15:38:34.763Z,102105.22
2022-12-01T15:41:32.718Z,102102.75
2022-12-01T15:43:57.566Z,102090.97
2022-12-01T15:46:34.650Z,102103.06
2022-12-01T15:49:29.993Z,102106.72
2022-12-01T15:52:11.511Z,102108.59
2022-12-01T15:54:38.969Z,102107.84
2022-12-01T15:57:06.592Z,102110.38
2022-12-01T15:59:39.132Z,102118.19
2022-12-01T16:02:27.388Z,102115.72
2022-12-01T16:05:08.885Z,102117.41
2022-12-01T16:10:41.717Z,102114.22
2022-12-01T16:13:36.341Z,102138.25
2022-12-01T16:16:27.157Z,102135.66
2022-12-01T16:18:58.061Z,102129.66
2022-12-01T16:21:25.132Z,102098.19
2022-12-01T16:24:03.894Z,102112.38
2022-12-01T16:26:32.743Z,102124.41
2022-12-01T16:28:59.423Z,102104.75
2022-12-01T16:31:26.993Z,102109.78
2022-12-01T16:34:13.750Z,102114.81
2022-12-01T16:36:45.498Z,102093.59
2022-12-01T16:39:13.938Z,102110.44
2022-12-01T16:41:44.465Z,102100.88
2022-12-01T16:44:27.991Z,102100.81
2022-12-01T16:46:55.758Z,102100.88
2022-12-01T16:49:22.563Z,102099.91
2022-12-01T16:51:56.030Z,102100.78
2022-12-01T16:54:23.632Z,102098.16
2022-12-01T16:56:50.975Z,102107.69
2022-12-01T16:59:17.504Z,102105.09
2022-12-01T17:01:44.088Z,102108.53
2022-12-01T17:04:10.651Z,102108.59
2022-12-01T17:06:38.399Z,102111.25
2022-12-01T17:09:05.329Z,102116.44
2022-12-01T17:11:32.416Z,102111.28
2022-12-01T17:13:59.026Z,102108.84
2022-12-01T17:16:25.619Z,102097.78
2022-12-01T17:18:52.228Z,102116.50
2022-12-01T17:21:18.825Z,102114.81
2022-12-01T17:23:45.526Z,102120.78
2022-12-01T17:26:18.641Z,102120.88
2022-12-01T17:28:45.216Z,102126.94
2022-12-01T17:31:12.283Z,102126.09
2022-12-01T17:33:39.224Z,102121.69
2022-12-01T17:36:11.839Z,102122.44
2022-12-01T17:38:40.353Z,102124.41
2022-12-01T17:41:12.390Z,102121.69
2022-12-01T17:43:39.651Z,102101.41
2022-12-01T17:46:08.284Z,102117.53
2022-12-01T17:48:37.074Z,102132.97
2022-12-01T17:51:04.077Z,102121.66
2022-12-01T17:53:30.709Z,102119.09
2022-12-01T17:55:57.248Z,102127.66
2022-12-01T17:58:23.909Z,102127.81
2022-12-01T18:00:51.971Z,102129.56
2022-12-01T18:03:19.750Z,102127.06
2022-12-01T18:05:55.083Z,102137.34
2022-12-01T18:08:21.825Z,102134.84
2022-12-01T18:10:48.297Z,102132.13
2022-12-01T18:13:14.814Z,102127.81
2022-12-01T18:15:41.439Z,102131.28
2022-12-01T18:18:07.966Z,102137.31
2022-12-01T18:20:34.467Z,102132.16
2022-12-01T18:23:00.937Z,102133.91
2022-12-01T18:25:27.439Z,102142.69
2022-12-01T18:27:58.308Z,102140.84
2022-12-01T18:30:24.854Z,102125.38
2022-12-01T18:32:51.412Z,102137.44
2022-12-01T18:35:17.974Z,102129.81
2022-12-01T18:37:44.443Z,102126.38
2022-12-01T18:40:11.738Z,102119.69
2022-12-01T18:42:38.278Z,102117.97
2022-12-01T18:45:05.118Z,102127.19
2022-12-01T18:47:31.684Z,102124.59
2022-12-01T18:49:58.248Z,102129.72
2022-12-01T18:52:24.809Z,102115.91
2022-12-01T18:54:51.656Z,102128.88
2022-12-01T18:57:19.027Z,102115.91
2022-12-01T18:59:45.855Z,102132.34
2022-12-01T19:02:12.517Z,102125.38
2022-12-01T19:04:39.079Z,102113.44
2022-12-01T19:07:05.567Z,102125.38
2022-12-01T19:09:32.072Z,102113.31
2022-12-01T19:12:00.226Z,102112.53
2022-12-01T19:14:28.551Z,102112.63
2022-12-01T19:16:55.658Z,102116.13
2022-12-01T19:19:22.463Z,102112.63
2022-12-01T19:21:50.359Z,102114.34
2022-12-01T19:24:16.895Z,102113.56
2022-12-01T19:26:43.403Z,102105.09
2022-12-01T19:29:10.064Z,102110.94
2022-12-01T19:31:36.609Z,102104.19
2022-12-01T19:34:04.196Z,102096.38
2022-12-01T19:36:30.901Z,102100.63
2022-12-01T19:39:00.158Z,102095.56
2022-12-01T19:41:27.456Z,102101.53
2022-12-01T19:43:55.128Z,102111.78
2022-12-01T19:46:23.852Z,102105.69
2022-12-01T19:48:56.276Z,102108.28
2022-12-01T19:51:29.989Z,102103.25
2022-12-01T19:53:56.910Z,102083.84
2022-12-01T19:56:24.676Z,102106.72
2022-12-01T19:58:58.815Z,102093.19
2022-12-01T20:01:26.408Z,102098.19
2022-12-01T20:03:54.116Z,102099.91
2022-12-01T20:06:26.594Z,102103.38
2022-12-01T20:08:55.687Z,102094.06
2022-12-01T20:11:22.910Z,102091.47
2022-12-01T20:13:49.530Z,102094.88
2022-12-01T20:16:18.674Z,102088.41
2022-12-01T20:18:45.999Z,102095.28
2022-12-01T20:21:17.461Z,102099.72
2022-12-01T20:23:45.989Z,102089.47
2022-12-01T20:26:13.595Z,102098.19
2022-12-01T20:28:41.529Z,102104.09
2022-12-01T20:31:11.752Z,102096.38
2022-12-01T20:33:38.990Z,102100.69
2022-12-01T20:36:06.506Z,102103.28
2022-12-01T20:38:33.651Z,102101.81
2022-12-01T20:41:00.137Z,102110.38
2022-12-01T20:43:26.667Z,102106.34
2022-12-01T20:45:53.232Z,102110.09
2022-12-01T20:48:19.841Z,102108.66
2022-12-01T20:50:46.590Z,102106.84
2022-12-01T20:53:13.714Z,102112.94
2022-12-01T20:55:40.438Z,102122.00
2022-12-01T20:58:08.872Z,102112.50
2022-12-01T21:00:38.510Z,102112.59
2022-12-01T21:03:05.939Z,102116.41
2022-12-01T21:05:33.214Z,102116.28
2022-12-01T21:08:01.428Z,102115.75
2022-12-01T21:10:28.193Z,102100.34
2022-12-01T21:13:18.702Z,102115.75
2022-12-01T21:16:01.825Z,102098.59
2022-12-01T21:18:40.844Z,102110.47
2022-12-01T21:21:27.580Z,102107.06
2022-12-01T21:24:17.185Z,102118.25
2022-12-01T21:26:57.724Z,102108.78
2022-12-01T21:29:26.729Z,102098.59
2022-12-01T21:32:00.336Z,102111.38
2022-12-01T21:34:28.713Z,102091.75
2022-12-01T21:36:59.059Z,102107.00
2022-12-01T21:39:26.584Z,102107.75
2022-12-01T21:41:56.889Z,102095.00
2022-12-01T21:44:36.039Z,102095.06
2022-12-01T21:47:21.849Z,102074.78
2022-12-01T21:49:52.269Z,102088.09
2022-12-01T21:52:27.181Z,102081.25
2022-12-01T21:54:54.623Z,102079.44
2022-12-01T21:57:43.099Z,102095.81
2022-12-01T22:00:30.315Z,102095.88
2022-12-01T22:03:08.149Z,102085.88
2022-12-01T22:05:52.320Z,102089.44
2022-12-01T22:08:34.299Z,102083.41
2022-12-01T22:11:18.755Z,102078.94
2022-12-01T22:13:49.831Z,102060.19
2022-12-01T22:16:26.007Z,102076.34
2022-12-01T22:18:55.126Z,102071.41
2022-12-01T22:21:21.649Z,102067.03
2022-12-01T22:23:59.652Z,102064.53
2022-12-01T22:26:26.463Z,102061.06
2022-12-01T22:28:56.937Z,102042.22
2022-12-01T22:31:25.897Z,102054.97
2022-12-01T22:34:01.495Z,102060.16
2022-12-01T22:36:33.326Z,102045.47
2022-12-01T22:39:00.182Z,102042.91
2022-12-01T22:41:28.825Z,102048.84
2022-12-01T22:43:56.724Z,102053.19
2022-12-01T22:46:31.114Z,102058.28
2022-12-01T22:49:19.394Z,102058.41
2022-12-01T22:51:50.869Z,102048.28
2022-12-01T22:54:17.724Z,102052.59
2022-12-01T22:56:47.534Z,102055.25
2022-12-01T22:59:27.748Z,102048.53
2022-12-01T23:02:00.033Z,102047.78
2022-12-01T23:04:31.193Z,102039.38
2022-12-01T23:06:59.239Z,102045.19
2022-12-01T23:09:36.057Z,102052.03
2022-12-01T23:12:11.503Z,102050.47
2022-12-01T23:15:00.623Z,102054.66
2022-12-01T23:17:32.886Z,102049.47
2022-12-01T23:20:11.684Z,102053.13
2022-12-01T23:22:38.770Z,102047.16
2022-12-01T23:25:17.377Z,102048.78
2022-12-01T23:27:46.673Z,102043.53
2022-12-01T23:30:14.980Z,102042.91
2022-12-01T23:32:41.805Z,102034.44
2022-12-01T23:35:15.013Z,102046.31
2022-12-01T23:37:43.666Z,102041.16
2022-12-01T23:40:33.203Z,102031.75
2022-12-01T23:43:19.166Z,102047.25
2022-12-01T23:45:46.716Z,102033.53
2022-12-01T23:48:21.851Z,102022.44
2022-12-01T23:50:52.572Z,102040.31
2022-12-01T23:53:29.125Z,102032.75
2022-12-01T23:55:59.019Z,102037.81
2022-12-01T23:58:25.551Z,102023.19
